createdAt,value
2019-01-12T00:00:14.907Z,6.50
2019-01-12T00:02:41.566Z,6.50
2019-01-12T00:05:08.277Z,6.60
2019-01-12T00:07:36.120Z,6.50
2019-01-12T00:10:06.263Z,6.50
2019-01-12T00:12:32.802Z,6.40
2019-01-12T00:14:59.314Z,6.40
2019-01-12T00:17:27.767Z,6.40
2019-01-12T00:19:54.279Z,6.40
2019-01-12T00:22:20.872Z,6.40
2019-01-12T00:24:47.499Z,6.40
2019-01-12T00:27:14.134Z,6.40
2019-01-12T00:29:40.688Z,6.40
2019-01-12T00:32:07.208Z,6.40
2019-01-12T00:34:33.814Z,6.40
2019-01-12T00:37:00.320Z,6.40
2019-01-12T00:39:26.999Z,6.30
2019-01-12T00:41:53.632Z,6.30
2019-01-12T00:44:20.315Z,6.50
2019-01-12T00:46:46.786Z,6.40
2019-01-12T00:49:13.333Z,6.30
2019-01-12T00:51:39.938Z,6.30
2019-01-12T00:54:06.575Z,6.30
2019-01-12T00:56:33.202Z,6.30
2019-01-12T00:58:59.795Z,6.30
2019-01-12T01:01:26.494Z,6.30
2019-01-12T01:03:53.391Z,6.30
2019-01-12T01:06:20.195Z,6.20
2019-01-12T01:08:46.752Z,6.20
2019-01-12T01:11:13.390Z,6.20
2019-01-12T01:13:40.040Z,6.30
2019-01-12T01:16:06.729Z,6.30
2019-01-12T01:18:33.400Z,6.30
2019-01-12T01:21:00.094Z,6.20
2019-01-12T01:23:26.763Z,6.20
2019-01-12T01:25:53.224Z,6.20
2019-01-12T01:28:19.851Z,6.20
2019-01-12T01:30:46.411Z,6.30
2019-01-12T01:33:13.030Z,6.20
2019-01-12T01:35:39.513Z,6.20
2019-01-12T01:38:06.144Z,6.20
2019-01-12T01:40:32.861Z,6.20
2019-01-12T01:42:59.454Z,6.20
2019-01-12T01:45:26.068Z,6.20
2019-01-12T01:47:52.691Z,6.20
2019-01-12T01:50:19.418Z,6.20
2019-01-12T01:52:46.051Z,6.20
2019-01-12T01:55:12.681Z,6.20
2019-01-12T01:57:39.368Z,6.20
2019-01-12T02:00:10.789Z,6.20
2019-01-12T02:02:37.375Z,6.20
2019-01-12T02:05:04.403Z,6.20
2019-01-12T02:07:31.035Z,6.20
2019-01-12T02:09:57.704Z,6.20
2019-01-12T02:12:24.194Z,6.20
2019-01-12T02:14:51.229Z,6.20
2019-01-12T02:17:17.864Z,6.20
2019-01-12T02:19:44.585Z,6.20
2019-01-12T02:22:11.204Z,6.20
2019-01-12T02:24:37.757Z,6.20
2019-01-12T02:27:04.369Z,6.20
2019-01-12T02:29:31.086Z,6.20
2019-01-12T02:31:57.670Z,6.30
2019-01-12T02:34:24.504Z,6.30
2019-01-12T02:36:51.633Z,6.20
2019-01-12T02:39:18.233Z,6.20
2019-01-12T02:41:44.744Z,6.20
2019-01-12T02:44:11.281Z,6.20
2019-01-12T02:46:37.859Z,6.20
2019-01-12T02:49:04.482Z,6.20
2019-01-12T02:51:31.152Z,6.20
2019-01-12T02:53:57.733Z,6.20
2019-01-12T02:56:24.342Z,6.20
2019-01-12T02:58:50.966Z,6.20
2019-01-12T03:01:17.575Z,6.20
2019-01-12T03:03:44.161Z,6.20
2019-01-12T03:06:10.794Z,6.20
2019-01-12T03:08:37.426Z,6.20
2019-01-12T03:11:04.129Z,6.20
2019-01-12T03:13:30.639Z,6.20
2019-01-12T03:15:57.282Z,6.20
2019-01-12T03:18:23.965Z,6.20
2019-01-12T03:20:50.596Z,6.20
2019-01-12T03:23:17.139Z,6.20
2019-01-12T03:25:43.683Z,6.20
2019-01-12T03:28:10.137Z,6.20
2019-01-12T03:30:37.745Z,6.20
2019-01-12T03:33:04.228Z,6.20
2019-01-12T03:35:30.924Z,6.20
2019-01-12T03:37:57.546Z,6.20
2019-01-12T03:40:24.097Z,6.20
2019-01-12T03:42:50.726Z,6.20
2019-01-12T03:45:17.355Z,6.10
2019-01-12T03:47:43.936Z,6.10
2019-01-12T03:50:17.310Z,6.10
2019-01-12T03:52:43.982Z,6.40
2019-01-12T03:55:10.764Z,6.10
2019-01-12T03:57:37.365Z,7.60
2019-01-12T04:00:07.580Z,6.10
2019-01-12T04:02:34.073Z,6.10
2019-01-12T04:05:00.674Z,6.20
2019-01-12T04:07:27.200Z,6.10
2019-01-12T04:09:53.722Z,6.10
2019-01-12T04:12:21.527Z,6.00
2019-01-12T04:14:47.934Z,6.00
2019-01-12T04:17:14.586Z,6.00
2019-01-12T04:19:42.003Z,6.00
2019-01-12T04:22:08.527Z,6.00
2019-01-12T04:24:35.004Z,6.00
2019-01-12T04:27:01.667Z,6.00
2019-01-12T04:29:28.030Z,6.00
2019-01-12T04:31:54.654Z,6.00
2019-01-12T04:34:21.301Z,6.00
2019-01-12T04:36:47.817Z,6.00
2019-01-12T04:39:14.359Z,6.00
2019-01-12T04:41:40.981Z,5.90
2019-01-12T04:44:07.551Z,5.90
2019-01-12T04:46:34.232Z,5.90
2019-01-12T04:49:00.741Z,5.90
2019-01-12T04:51:27.391Z,5.90
2019-01-12T04:53:54.005Z,5.90
2019-01-12T04:56:20.621Z,5.90
2019-01-12T04:58:47.169Z,5.90
2019-01-12T05:01:13.811Z,6.00
2019-01-12T05:03:40.709Z,5.90
2019-01-12T05:06:07.697Z,5.90
2019-01-12T05:08:34.123Z,5.90
2019-01-12T05:11:00.760Z,5.90
2019-01-12T05:13:27.288Z,5.90
2019-01-12T05:15:55.109Z,6.00
2019-01-12T05:18:21.791Z,5.80
2019-01-12T05:20:48.417Z,5.80
2019-01-12T05:23:14.944Z,5.80
2019-01-12T05:25:48.714Z,5.80
2019-01-12T05:28:09.742Z,5.80
2019-01-12T05:30:36.243Z,5.80
2019-01-12T05:33:02.983Z,5.80
2019-01-12T05:35:29.584Z,5.80
2019-01-12T05:37:56.135Z,5.80
2019-01-12T05:40:22.703Z,5.80
2019-01-12T05:42:49.218Z,5.70
2019-01-12T05:45:15.829Z,5.80
2019-01-12T05:47:42.449Z,5.70
2019-01-12T05:50:10.819Z,5.70
2019-01-12T05:52:37.453Z,5.70
2019-01-12T05:55:04.994Z,5.70
2019-01-12T05:57:31.412Z,5.70
2019-01-12T05:59:58.099Z,5.70
2019-01-12T06:02:24.718Z,5.70
2019-01-12T06:04:51.133Z,5.70
2019-01-12T06:07:17.775Z,5.70
2019-01-12T06:09:44.171Z,5.60
2019-01-12T06:12:10.839Z,5.60
2019-01-12T06:14:37.227Z,5.70
2019-01-12T06:17:03.731Z,5.70
2019-01-12T06:19:31.367Z,5.60
2019-01-12T06:21:57.872Z,5.60
2019-01-12T06:24:24.448Z,5.60
2019-01-12T06:26:50.985Z,5.60
2019-01-12T06:29:17.589Z,5.60
2019-01-12T06:31:45.624Z,5.60
2019-01-12T06:34:12.140Z,5.50
2019-01-12T06:36:38.812Z,5.60
2019-01-12T06:39:07.307Z,5.60
2019-01-12T06:41:33.928Z,5.60
2019-01-12T06:44:00.439Z,5.50
2019-01-12T06:46:26.953Z,5.50
2019-01-12T06:48:53.403Z,5.60
2019-01-12T06:51:20.008Z,5.60
2019-01-12T06:53:46.815Z,5.60
2019-01-12T06:56:13.232Z,5.60
2019-01-12T06:58:39.988Z,5.60
2019-01-12T07:01:06.637Z,5.60
2019-01-12T07:03:33.076Z,5.60
2019-01-12T07:05:59.555Z,5.60
2019-01-12T07:08:27.936Z,5.60
2019-01-12T07:10:56.033Z,5.60
2019-01-12T07:13:22.689Z,5.60
2019-01-12T07:15:49.282Z,5.50
2019-01-12T07:18:15.834Z,5.50
2019-01-12T07:20:42.434Z,5.50
2019-01-12T07:23:08.943Z,5.50
2019-01-12T07:25:35.891Z,5.60
2019-01-12T07:28:02.794Z,5.70
2019-01-12T07:30:29.412Z,5.60
2019-01-12T07:32:56.070Z,5.60
2019-01-12T07:35:22.591Z,5.60
2019-01-12T07:37:49.162Z,5.50
2019-01-12T07:40:16.625Z,5.60
2019-01-12T07:42:43.316Z,5.60
2019-01-12T07:45:10.022Z,5.60
2019-01-12T07:47:42.752Z,5.60
2019-01-12T07:50:11.139Z,5.60
2019-01-12T07:52:37.555Z,5.60
2019-01-12T07:55:05.780Z,5.60
2019-01-12T07:57:32.452Z,5.70
2019-01-12T07:59:59.090Z,5.70
2019-01-12T08:02:25.705Z,5.60
2019-01-12T08:04:52.307Z,5.70
2019-01-12T08:07:18.968Z,5.60
2019-01-12T08:09:45.461Z,5.50
2019-01-12T08:12:12.144Z,5.60
2019-01-12T08:14:38.620Z,5.70
2019-01-12T08:17:05.257Z,5.70
2019-01-12T08:19:31.776Z,5.70
2019-01-12T08:21:58.407Z,5.70
2019-01-12T08:24:24.902Z,5.70
2019-01-12T08:26:51.508Z,5.70
2019-01-12T08:29:18.050Z,5.70
2019-01-12T08:31:44.673Z,5.70
2019-01-12T08:34:11.217Z,5.70
2019-01-12T08:36:37.825Z,5.70
2019-01-12T08:39:05.277Z,5.70
2019-01-12T08:41:31.839Z,5.70
2019-01-12T08:43:58.255Z,5.80
2019-01-12T08:46:24.779Z,5.70
2019-01-12T08:48:52.756Z,5.70
2019-01-12T08:51:19.374Z,5.70
2019-01-12T08:53:45.932Z,5.70
2019-01-12T08:56:12.401Z,5.70
2019-01-12T08:58:38.936Z,5.70
2019-01-12T09:01:05.537Z,5.80
2019-01-12T09:03:32.091Z,5.80
2019-01-12T09:05:58.573Z,5.80
2019-01-12T09:08:25.183Z,5.80
2019-01-12T09:10:51.670Z,5.80
2019-01-12T09:13:18.231Z,5.90
2019-01-12T09:15:44.755Z,5.90
2019-01-12T09:18:13.132Z,5.90
2019-01-12T09:20:41.510Z,5.80
2019-01-12T09:23:07.836Z,5.90
2019-01-12T09:25:34.479Z,5.90
2019-01-12T09:28:01.010Z,6.00
2019-01-12T09:30:27.750Z,6.10
2019-01-12T09:32:54.383Z,6.00
2019-01-12T09:35:21.294Z,6.00
2019-01-12T09:37:47.894Z,6.10
2019-01-12T09:40:16.906Z,6.10
2019-01-12T09:42:43.496Z,6.10
2019-01-12T09:45:11.983Z,6.20
2019-01-12T09:47:38.583Z,6.10
2019-01-12T09:50:08.820Z,6.20
2019-01-12T09:52:36.469Z,6.10
2019-01-12T09:55:04.018Z,6.10
2019-01-12T09:57:30.544Z,6.20
2019-01-12T09:59:57.115Z,6.20
2019-01-12T10:02:23.617Z,6.10
2019-01-12T10:04:50.242Z,6.20
2019-01-12T10:07:16.756Z,6.10
2019-01-12T10:09:43.410Z,6.20
2019-01-12T10:12:10.052Z,6.20
2019-01-12T10:14:36.691Z,6.20
2019-01-12T10:17:03.281Z,6.20
2019-01-12T10:19:30.291Z,6.30
2019-01-12T10:21:57.872Z,6.30
2019-01-12T10:24:25.152Z,6.30
2019-01-12T10:26:58.336Z,6.30
2019-01-12T10:29:20.080Z,6.30
2019-01-12T10:31:46.659Z,6.40
2019-01-12T10:34:13.296Z,6.60
2019-01-12T10:36:39.776Z,6.40
2019-01-12T10:39:06.431Z,6.40
2019-01-12T10:41:32.936Z,6.40
2019-01-12T10:43:59.472Z,4.10
2019-01-12T10:46:26.055Z,6.40
2019-01-12T10:48:52.743Z,6.40
2019-01-12T10:51:19.362Z,6.40
2019-01-12T10:53:46.475Z,8.30
2019-01-12T10:56:16.442Z,6.40
2019-01-12T10:58:44.599Z,6.50
2019-01-12T11:01:11.787Z,6.40
2019-01-12T11:03:38.711Z,6.30
2019-01-12T11:06:06.397Z,4.90
2019-01-12T11:08:36.003Z,6.10
2019-01-12T11:11:02.960Z,6.20
2019-01-12T11:13:29.442Z,6.20
2019-01-12T11:15:56.100Z,6.10
2019-01-12T11:18:22.670Z,6.10
2019-01-12T11:20:49.308Z,6.00
2019-01-12T11:23:15.815Z,6.00
2019-01-12T11:25:43.363Z,6.00
2019-01-12T11:28:09.938Z,6.10
2019-01-12T11:30:36.691Z,6.00
2019-01-12T11:33:03.379Z,6.00
2019-01-12T11:35:30.050Z,6.00
2019-01-12T11:37:58.172Z,6.00
2019-01-12T11:40:24.888Z,6.00
2019-01-12T11:42:51.870Z,6.00
2019-01-12T11:45:19.984Z,6.00
2019-01-12T11:47:46.576Z,6.00
2019-01-12T11:50:14.773Z,6.00
2019-01-12T11:52:42.090Z,6.10
2019-01-12T11:55:10.846Z,6.10
2019-01-12T11:57:37.449Z,6.10
2019-01-12T12:00:10.515Z,6.10
2019-01-12T12:02:37.874Z,6.00
2019-01-12T12:05:05.944Z,6.10
2019-01-12T12:07:32.538Z,6.10
2019-01-12T12:09:59.078Z,6.10
2019-01-12T12:12:25.659Z,5.90
2019-01-12T12:14:52.341Z,6.00
2019-01-12T12:17:18.986Z,6.00
2019-01-12T12:19:45.568Z,6.00
2019-01-12T12:22:12.187Z,6.00
2019-01-12T12:24:38.817Z,6.00
2019-01-12T12:27:05.444Z,6.00
2019-01-12T12:29:32.051Z,6.10
2019-01-12T12:31:58.572Z,6.10
2019-01-12T12:34:25.146Z,6.00
2019-01-12T12:36:52.145Z,6.00
2019-01-12T12:39:18.629Z,6.10
2019-01-12T12:41:45.247Z,6.10
2019-01-12T12:44:11.859Z,6.00
2019-01-12T12:46:39.035Z,6.00
2019-01-12T12:49:05.657Z,6.10
2019-01-12T12:51:32.225Z,6.10
2019-01-12T12:53:58.816Z,6.10
2019-01-12T12:56:25.373Z,6.10
2019-01-12T12:58:51.954Z,6.10
2019-01-12T13:01:18.619Z,6.10
2019-01-12T13:03:45.151Z,6.10
2019-01-12T13:06:12.004Z,6.10
2019-01-12T13:08:38.531Z,6.10
2019-01-12T13:11:05.173Z,6.10
2019-01-12T13:13:31.810Z,6.10
2019-01-12T13:15:58.479Z,6.10
2019-01-12T13:18:25.078Z,6.20
2019-01-12T13:20:51.710Z,6.20
2019-01-12T13:23:18.356Z,6.20
2019-01-12T13:25:44.909Z,6.20
2019-01-12T13:28:11.606Z,6.20
2019-01-12T13:30:38.238Z,6.20
2019-01-12T13:33:06.625Z,6.20
2019-01-12T13:35:33.238Z,6.20
2019-01-12T13:37:59.893Z,6.20
2019-01-12T13:40:26.634Z,6.20
2019-01-12T13:42:53.302Z,6.20
2019-01-12T13:45:21.319Z,6.30
2019-01-12T13:47:48.636Z,6.30
2019-01-12T13:50:17.825Z,6.30
2019-01-12T13:52:44.612Z,6.30
2019-01-12T13:55:14.827Z,6.30
2019-01-12T13:57:47.278Z,6.40
2019-01-12T14:00:19.588Z,6.40
2019-01-12T14:02:46.325Z,6.40
2019-01-12T14:05:12.918Z,6.50
2019-01-12T14:07:39.531Z,6.50
2019-01-12T14:10:09.746Z,6.60
2019-01-12T14:12:36.527Z,6.60
2019-01-12T14:15:06.703Z,6.60
2019-01-12T14:17:34.591Z,6.60
2019-01-12T14:20:02.163Z,6.60
2019-01-12T14:22:28.659Z,6.60
2019-01-12T14:24:55.157Z,6.60
2019-01-12T14:27:21.693Z,6.60
2019-01-12T14:29:48.227Z,6.60
2019-01-12T14:32:14.876Z,6.60
2019-01-12T14:34:41.489Z,6.60
2019-01-12T14:37:08.403Z,6.60
2019-01-12T14:39:35.057Z,6.60
2019-01-12T14:44:34.495Z,6.60
2019-01-12T14:47:00.936Z,6.70
2019-01-12T14:49:27.544Z,6.70
2019-01-12T14:51:55.256Z,6.80
2019-01-12T14:54:21.796Z,6.80
2019-01-12T14:56:48.419Z,6.80
2019-01-12T14:59:14.850Z,6.80
2019-01-12T15:01:41.430Z,6.80
2019-01-12T15:04:08.103Z,6.80
2019-01-12T15:06:34.725Z,6.80
2019-01-12T15:09:01.327Z,6.80
2019-01-12T15:11:27.946Z,6.80
2019-01-12T15:13:54.351Z,6.90
2019-01-12T15:16:20.765Z,6.80
2019-01-12T15:18:47.490Z,6.90
2019-01-12T15:21:14.073Z,6.90
2019-01-12T15:23:40.823Z,6.90
2019-01-12T15:26:07.439Z,6.90
2019-01-12T15:28:33.869Z,6.90
2019-01-12T15:31:00.487Z,6.90
2019-01-12T15:33:28.238Z,6.90
2019-01-12T15:35:54.931Z,7.00
2019-01-12T15:38:21.564Z,6.90
2019-01-12T15:40:47.972Z,7.00
2019-01-12T15:43:14.621Z,7.00
2019-01-12T15:45:41.205Z,7.00
2019-01-12T15:48:09.730Z,7.00
2019-01-12T15:50:36.394Z,7.00
2019-01-12T15:53:03.108Z,7.00
2019-01-12T15:55:29.673Z,7.00
2019-01-12T15:57:56.415Z,7.00
2019-01-12T16:00:24.891Z,7.00
2019-01-12T16:02:52.803Z,7.00
2019-01-12T16:05:19.547Z,7.00
2019-01-12T16:07:46.151Z,7.00
2019-01-12T16:10:14.155Z,7.00
2019-01-12T16:12:40.682Z,7.10
2019-01-12T16:15:19.475Z,7.10
2019-01-12T16:17:46.089Z,7.10
2019-01-12T16:20:21.945Z,7.10
2019-01-12T16:22:48.473Z,7.10
2019-01-12T16:25:15.054Z,7.10
2019-01-12T16:27:41.671Z,7.10
2019-01-12T16:30:17.543Z,7.10
2019-01-12T16:32:44.054Z,7.10
2019-01-12T16:35:10.853Z,7.10
2019-01-12T16:37:37.468Z,7.10
2019-01-12T16:40:10.572Z,7.10
2019-01-12T16:42:37.190Z,7.10
2019-01-12T16:45:05.879Z,7.10
2019-01-12T16:47:34.264Z,7.10
2019-01-12T16:50:00.908Z,7.10
2019-01-12T16:52:27.302Z,7.10
2019-01-12T16:54:53.981Z,7.10
2019-01-12T16:57:20.822Z,7.00
2019-01-12T16:59:47.421Z,7.00
2019-01-12T17:02:13.900Z,7.10
2019-01-12T17:04:40.435Z,7.10
2019-01-12T17:07:07.079Z,7.10
2019-01-12T17:09:33.728Z,7.00
2019-01-12T17:12:00.344Z,7.00
2019-01-12T17:14:26.901Z,7.10
2019-01-12T17:16:53.477Z,7.10
2019-01-12T17:19:20.164Z,7.10
2019-01-12T17:21:46.671Z,7.10
2019-01-12T17:24:13.439Z,7.00
2019-01-12T17:26:40.062Z,7.00
2019-01-12T17:29:08.555Z,7.00
2019-01-12T17:31:35.199Z,7.00
2019-01-12T17:34:01.618Z,7.00
2019-01-12T17:36:28.198Z,7.00
2019-01-12T17:38:54.740Z,7.00
2019-01-12T17:41:21.342Z,7.00
2019-01-12T17:43:47.883Z,7.00
2019-01-12T17:46:15.439Z,7.00
2019-01-12T17:48:41.909Z,7.10
2019-01-12T17:51:08.422Z,7.10
2019-01-12T17:53:35.074Z,7.00
2019-01-12T17:56:01.687Z,7.10
2019-01-12T17:58:29.272Z,7.00
2019-01-12T18:00:55.873Z,7.00
2019-01-12T18:03:22.497Z,7.00
2019-01-12T18:05:48.991Z,7.00
2019-01-12T18:08:15.558Z,7.00
2019-01-12T18:10:42.099Z,7.00
2019-01-12T18:13:08.677Z,7.00
2019-01-12T18:15:35.222Z,6.90
2019-01-12T18:18:01.803Z,6.90
2019-01-12T18:20:28.510Z,6.90
2019-01-12T18:22:55.110Z,6.90
2019-01-12T18:25:21.758Z,7.00
2019-01-12T18:27:48.363Z,6.90
2019-01-12T18:30:20.621Z,6.90
2019-01-12T18:32:47.233Z,7.00
2019-01-12T18:35:13.967Z,6.80
2019-01-12T18:37:40.551Z,6.90
2019-01-12T18:40:24.528Z,6.90
2019-01-12T18:42:51.128Z,6.90
2019-01-12T18:45:19.507Z,6.90
2019-01-12T18:47:46.178Z,6.90
2019-01-12T18:50:19.390Z,6.90
2019-01-12T18:52:45.997Z,6.90
2019-01-12T18:55:13.397Z,6.90
2019-01-12T18:57:39.983Z,6.90
2019-01-12T19:00:18.361Z,6.80
2019-01-12T19:02:41.845Z,6.80
2019-01-12T19:05:08.500Z,6.80
2019-01-12T19:07:35.289Z,6.80
2019-01-12T19:10:01.911Z,6.80
2019-01-12T19:12:28.515Z,6.80
2019-01-12T19:14:55.131Z,6.80
2019-01-12T19:17:21.701Z,6.80
2019-01-12T19:19:48.138Z,6.80
2019-01-12T19:22:14.733Z,6.80
2019-01-12T19:24:41.279Z,6.80
2019-01-12T19:27:07.893Z,6.80
2019-01-12T19:29:34.424Z,6.80
2019-01-12T19:32:01.169Z,6.80
2019-01-12T19:34:27.531Z,6.80
2019-01-12T19:36:55.994Z,6.90
2019-01-12T19:39:22.493Z,6.90
2019-01-12T19:41:49.018Z,6.90
2019-01-12T19:44:15.501Z,6.90
2019-01-12T19:46:42.024Z,6.90
2019-01-12T19:49:08.736Z,6.90
2019-01-12T19:51:35.365Z,6.90
2019-01-12T19:54:02.103Z,6.90
2019-01-12T19:56:28.632Z,6.90
2019-01-12T19:58:55.121Z,6.80
2019-01-12T20:01:22.179Z,6.90
2019-01-12T20:03:48.666Z,6.90
2019-01-12T20:06:17.226Z,6.90
2019-01-12T20:08:43.970Z,6.90
2019-01-12T20:11:10.589Z,6.90
2019-01-12T20:13:37.259Z,6.90
2019-01-12T20:16:03.777Z,6.90
2019-01-12T20:18:30.424Z,6.90
2019-01-12T20:20:56.972Z,6.80
2019-01-12T20:23:23.576Z,6.80
2019-01-12T20:25:50.123Z,6.80
2019-01-12T20:28:16.600Z,6.80
2019-01-12T20:30:46.891Z,6.80
2019-01-12T20:33:26.191Z,6.80
2019-01-12T20:35:56.445Z,6.90
2019-01-12T20:38:32.587Z,6.90
2019-01-12T20:41:10.824Z,6.90
2019-01-12T20:43:42.202Z,6.90
2019-01-12T20:46:24.503Z,6.90
2019-01-12T20:49:00.503Z,6.90
2019-01-12T20:51:55.958Z,6.90
2019-01-12T20:54:26.131Z,6.90
2019-01-12T20:57:05.639Z,6.90
2019-01-12T20:59:38.170Z,6.80
2019-01-12T21:02:32.815Z,6.90
2019-01-12T21:05:14.878Z,6.80
2019-01-12T21:07:51.237Z,6.80
2019-01-12T21:10:55.993Z,6.80
2019-01-12T21:13:41.752Z,6.80
2019-01-12T21:16:14.863Z,6.80
2019-01-12T21:18:41.344Z,6.90
2019-01-12T21:21:07.998Z,6.90
2019-01-12T21:23:34.608Z,6.90
2019-01-12T21:26:01.094Z,6.90
2019-01-12T21:28:27.714Z,6.90
2019-01-12T21:30:57.103Z,6.90
2019-01-12T21:33:23.869Z,6.90
2019-01-12T21:35:50.400Z,6.90
2019-01-12T21:38:17.153Z,6.80
2019-01-12T21:40:44.734Z,6.80
2019-01-12T21:43:11.406Z,6.80
2019-01-12T21:45:42.203Z,6.80
2019-01-12T21:48:08.856Z,6.80
2019-01-12T21:50:35.458Z,6.90
2019-01-12T21:53:02.097Z,6.80
2019-01-12T21:55:31.053Z,6.80
2019-01-12T21:57:57.737Z,6.80
2019-01-12T22:00:25.490Z,6.80
2019-01-12T22:02:52.163Z,6.80
2019-01-12T22:05:18.767Z,6.80
2019-01-12T22:07:47.378Z,6.80
2019-01-12T22:10:19.284Z,6.80
2019-01-12T22:12:43.671Z,6.80
2019-01-12T22:15:14.879Z,6.80
2019-01-12T22:17:41.518Z,6.80
2019-01-12T22:20:11.206Z,6.80
2019-01-12T22:22:38.464Z,6.90
2019-01-12T22:25:06.064Z,6.90
2019-01-12T22:27:34.843Z,6.90
2019-01-12T22:30:01.441Z,6.90
2019-01-12T22:32:28.108Z,6.90
2019-01-12T22:34:56.424Z,6.80
2019-01-12T22:37:25.220Z,6.90
2019-01-12T22:39:51.699Z,6.90
2019-01-12T22:42:18.319Z,6.90
2019-01-12T22:44:44.756Z,6.90
2019-01-12T22:47:13.475Z,6.80
2019-01-12T22:49:40.066Z,6.90
2019-01-12T22:52:06.686Z,6.90
2019-01-12T22:54:33.419Z,6.90
2019-01-12T22:57:00.029Z,6.90
2019-01-12T22:59:26.732Z,6.90
2019-01-12T23:01:53.648Z,7.00
2019-01-12T23:04:26.267Z,7.00
2019-01-12T23:06:52.735Z,6.90
2019-01-12T23:09:19.275Z,7.00
2019-01-12T23:11:46.296Z,7.00
2019-01-12T23:14:12.932Z,6.90
2019-01-12T23:16:39.536Z,6.90
2019-01-12T23:19:06.161Z,6.90
2019-01-12T23:21:32.778Z,6.90
2019-01-12T23:23:59.493Z,6.90
2019-01-12T23:26:26.110Z,6.90
2019-01-12T23:28:52.741Z,6.90
2019-01-12T23:31:19.287Z,6.90
2019-01-12T23:33:45.943Z,7.10
2019-01-12T23:36:12.616Z,6.90
2019-01-12T23:38:39.154Z,6.90
2019-01-12T23:41:05.674Z,7.00
2019-01-12T23:43:32.457Z,6.90
2019-01-12T23:45:59.128Z,7.00
2019-01-12T23:48:25.707Z,7.00
2019-01-12T23:50:52.405Z,7.00
2019-01-12T23:53:18.974Z,7.00
2019-01-12T23:55:45.556Z,7.00
2019-01-12T23:58:12.006Z,7.10
